sensor_id;sensor_type;location;lat;lon;timestamp;P1;durP1;ratioP1;P2;durP2;ratioP2
11006;SDS011;8186;57.652;11.968;2023-01-29T00:01:16;8.93;;;2.33;;
11006;SDS011;8186;57.652;11.968;2023-01-29T00:03:43;13.17;;;3.10;;
11006;SDS011;8186;57.652;11.968;2023-01-29T00:06:10;15.27;;;2.90;;
11006;SDS011;8186;57.652;11.968;2023-01-29T00:08:37;20.67;;;2.80;;
11006;SDS011;8186;57.652;11.968;2023-01-29T00:11:05;16.53;;;2.87;;
11006;SDS011;8186;57.652;11.968;2023-01-29T00:13:33;16.60;;;3.43;;
11006;SDS011;8186;57.652;11.968;2023-01-29T00:16:00;14.87;;;2.33;;
11006;SDS011;8186;57.652;11.968;2023-01-29T00:18:29;15.10;;;3.37;;
11006;SDS011;8186;57.652;11.968;2023-01-29T00:20:56;21.00;;;3.80;;
11006;SDS011;8186;57.652;11.968;2023-01-29T00:23:24;18.80;;;3.67;;
11006;SDS011;8186;57.652;11.968;2023-01-29T00:25:51;26.17;;;4.70;;
11006;SDS011;8186;57.652;11.968;2023-01-29T00:28:18;22.57;;;3.90;;
11006;SDS011;8186;57.652;11.968;2023-01-29T00:30:44;20.63;;;3.73;;
11006;SDS011;8186;57.652;11.968;2023-01-29T00:33:11;18.03;;;3.87;;
11006;SDS011;8186;57.652;11.968;2023-01-29T00:35:40;31.80;;;4.10;;
11006;SDS011;8186;57.652;11.968;2023-01-29T00:38:07;18.10;;;3.33;;
11006;SDS011;8186;57.652;11.968;2023-01-29T00:40:35;27.80;;;4.47;;
11006;SDS011;8186;57.652;11.968;2023-01-29T00:43:17;29.27;;;4.60;;
11006;SDS011;8186;57.652;11.968;2023-01-29T00:46:03;25.27;;;3.57;;
11006;SDS011;8186;57.652;11.968;2023-01-29T00:48:31;17.37;;;3.50;;
11006;SDS011;8186;57.652;11.968;2023-01-29T00:50:59;31.10;;;4.87;;
11006;SDS011;8186;57.652;11.968;2023-01-29T00:53:26;21.43;;;3.70;;
11006;SDS011;8186;57.652;11.968;2023-01-29T00:55:54;30.43;;;3.97;;
11006;SDS011;8186;57.652;11.968;2023-01-29T00:58:21;18.77;;;3.90;;
11006;SDS011;8186;57.652;11.968;2023-01-29T01:00:58;18.57;;;3.47;;
11006;SDS011;8186;57.652;11.968;2023-01-29T01:03:26;21.50;;;4.03;;
11006;SDS011;8186;57.652;11.968;2023-01-29T01:06:02;22.73;;;3.83;;
11006;SDS011;8186;57.652;11.968;2023-01-29T01:08:30;25.90;;;4.13;;
11006;SDS011;8186;57.652;11.968;2023-01-29T01:11:14;24.80;;;4.47;;
11006;SDS011;8186;57.652;11.968;2023-01-29T01:13:41;16.17;;;3.40;;
11006;SDS011;8186;57.652;11.968;2023-01-29T01:16:08;21.10;;;4.50;;
11006;SDS011;8186;57.652;11.968;2023-01-29T01:18:36;27.87;;;4.97;;
11006;SDS011;8186;57.652;11.968;2023-01-29T01:21:05;22.00;;;4.30;;
11006;SDS011;8186;57.652;11.968;2023-01-29T01:23:32;32.33;;;4.83;;
11006;SDS011;8186;57.652;11.968;2023-01-29T01:25:59;23.57;;;4.10;;
11006;SDS011;8186;57.652;11.968;2023-01-29T01:28:26;26.33;;;4.57;;
11006;SDS011;8186;57.652;11.968;2023-01-29T01:30:53;23.23;;;4.43;;
11006;SDS011;8186;57.652;11.968;2023-01-29T01:33:20;26.00;;;4.20;;
11006;SDS011;8186;57.652;11.968;2023-01-29T01:35:47;20.03;;;3.87;;
11006;SDS011;8186;57.652;11.968;2023-01-29T01:38:15;24.63;;;3.97;;
11006;SDS011;8186;57.652;11.968;2023-01-29T01:40:43;29.30;;;4.67;;
11006;SDS011;8186;57.652;11.968;2023-01-29T01:43:11;33.43;;;4.93;;
11006;SDS011;8186;57.652;11.968;2023-01-29T01:45:38;33.87;;;4.87;;
11006;SDS011;8186;57.652;11.968;2023-01-29T01:48:05;25.43;;;4.93;;
11006;SDS011;8186;57.652;11.968;2023-01-29T01:50:37;28.60;;;4.13;;
11006;SDS011;8186;57.652;11.968;2023-01-29T01:53:07;30.33;;;4.77;;
11006;SDS011;8186;57.652;11.968;2023-01-29T01:55:38;18.67;;;3.60;;
11006;SDS011;8186;57.652;11.968;2023-01-29T01:58:08;25.87;;;3.93;;
11006;SDS011;8186;57.652;11.968;2023-01-29T02:00:37;27.73;;;4.67;;
11006;SDS011;8186;57.652;11.968;2023-01-29T02:03:05;27.60;;;4.40;;
11006;SDS011;8186;57.652;11.968;2023-01-29T02:05:49;25.27;;;4.03;;
11006;SDS011;8186;57.652;11.968;2023-01-29T02:08:36;26.23;;;4.90;;
11006;SDS011;8186;57.652;11.968;2023-01-29T02:11:31;22.17;;;4.00;;
11006;SDS011;8186;57.652;11.968;2023-01-29T02:13:58;30.90;;;5.50;;
11006;SDS011;8186;57.652;11.968;2023-01-29T02:16:26;21.10;;;4.13;;
11006;SDS011;8186;57.652;11.968;2023-01-29T02:18:52;28.13;;;4.63;;
11006;SDS011;8186;57.652;11.968;2023-01-29T02:21:24;25.97;;;4.23;;
11006;SDS011;8186;57.652;11.968;2023-01-29T02:24:10;24.13;;;4.87;;
11006;SDS011;8186;57.652;11.968;2023-01-29T02:27:05;24.43;;;4.07;;
11006;SDS011;8186;57.652;11.968;2023-01-29T02:29:37;23.87;;;4.37;;
11006;SDS011;8186;57.652;11.968;2023-01-29T02:32:12;25.90;;;3.73;;
11006;SDS011;8186;57.652;11.968;2023-01-29T02:34:45;23.70;;;4.17;;
11006;SDS011;8186;57.652;11.968;2023-01-29T02:37:35;21.57;;;3.70;;
11006;SDS011;8186;57.652;11.968;2023-01-29T02:40:07;24.83;;;4.40;;
11006;SDS011;8186;57.652;11.968;2023-01-29T02:42:40;25.53;;;4.63;;
11006;SDS011;8186;57.652;11.968;2023-01-29T02:45:14;25.83;;;5.17;;
11006;SDS011;8186;57.652;11.968;2023-01-29T02:47:46;21.83;;;4.50;;
11006;SDS011;8186;57.652;11.968;2023-01-29T02:50:15;23.20;;;3.90;;
11006;SDS011;8186;57.652;11.968;2023-01-29T02:52:47;24.73;;;4.63;;
11006;SDS011;8186;57.652;11.968;2023-01-29T02:55:20;29.23;;;4.27;;
11006;SDS011;8186;57.652;11.968;2023-01-29T02:57:49;19.13;;;3.70;;
11006;SDS011;8186;57.652;11.968;2023-01-29T03:00:20;28.43;;;4.47;;
11006;SDS011;8186;57.652;11.968;2023-01-29T03:02:51;27.87;;;4.77;;
11006;SDS011;8186;57.652;11.968;2023-01-29T03:05:22;20.43;;;4.00;;
11006;SDS011;8186;57.652;11.968;2023-01-29T03:07:53;24.73;;;4.63;;
11006;SDS011;8186;57.652;11.968;2023-01-29T03:10:23;24.13;;;4.47;;
11006;SDS011;8186;57.652;11.968;2023-01-29T03:12:54;37.07;;;4.80;;
11006;SDS011;8186;57.652;11.968;2023-01-29T03:15:27;25.60;;;3.77;;
11006;SDS011;8186;57.652;11.968;2023-01-29T03:17:56;29.97;;;4.57;;
11006;SDS011;8186;57.652;11.968;2023-01-29T03:20:26;24.33;;;4.67;;
11006;SDS011;8186;57.652;11.968;2023-01-29T03:23:00;24.33;;;4.30;;
11006;SDS011;8186;57.652;11.968;2023-01-29T03:25:30;23.47;;;3.63;;
11006;SDS011;8186;57.652;11.968;2023-01-29T03:28:17;28.30;;;4.37;;
11006;SDS011;8186;57.652;11.968;2023-01-29T03:31:05;23.73;;;4.50;;
11006;SDS011;8186;57.652;11.968;2023-01-29T03:33:53;23.00;;;3.80;;
11006;SDS011;8186;57.652;11.968;2023-01-29T03:36:25;25.30;;;4.20;;
11006;SDS011;8186;57.652;11.968;2023-01-29T03:39:02;14.70;;;4.20;;
11006;SDS011;8186;57.652;11.968;2023-01-29T03:41:30;19.67;;;3.50;;
11006;SDS011;8186;57.652;11.968;2023-01-29T03:44:01;29.30;;;4.27;;
11006;SDS011;8186;57.652;11.968;2023-01-29T03:46:35;25.50;;;3.90;;
11006;SDS011;8186;57.652;11.968;2023-01-29T03:49:06;21.97;;;4.23;;
11006;SDS011;8186;57.652;11.968;2023-01-29T03:51:37;23.27;;;3.60;;
11006;SDS011;8186;57.652;11.968;2023-01-29T03:54:09;25.80;;;4.83;;
11006;SDS011;8186;57.652;11.968;2023-01-29T03:56:46;20.13;;;3.87;;
11006;SDS011;8186;57.652;11.968;2023-01-29T03:59:21;22.07;;;4.50;;
11006;SDS011;8186;57.652;11.968;2023-01-29T04:01:52;22.33;;;5.10;;
11006;SDS011;8186;57.652;11.968;2023-01-29T04:04:21;19.40;;;3.43;;
11006;SDS011;8186;57.652;11.968;2023-01-29T04:06:50;18.87;;;4.00;;
11006;SDS011;8186;57.652;11.968;2023-01-29T04:09:18;27.73;;;4.20;;
11006;SDS011;8186;57.652;11.968;2023-01-29T04:11:49;24.57;;;4.90;;
11006;SDS011;8186;57.652;11.968;2023-01-29T04:14:19;20.30;;;4.30;;
11006;SDS011;8186;57.652;11.968;2023-01-29T04:16:47;21.97;;;3.27;;
11006;SDS011;8186;57.652;11.968;2023-01-29T04:19:18;21.40;;;3.87;;
11006;SDS011;8186;57.652;11.968;2023-01-29T04:21:45;18.83;;;3.90;;
11006;SDS011;8186;57.652;11.968;2023-01-29T04:24:12;21.83;;;3.67;;
11006;SDS011;8186;57.652;11.968;2023-01-29T04:26:44;19.57;;;3.60;;
11006;SDS011;8186;57.652;11.968;2023-01-29T04:29:23;21.13;;;3.93;;
11006;SDS011;8186;57.652;11.968;2023-01-29T04:31:56;27.73;;;4.70;;
11006;SDS011;8186;57.652;11.968;2023-01-29T04:34:28;24.83;;;4.17;;
11006;SDS011;8186;57.652;11.968;2023-01-29T04:37:03;21.47;;;3.90;;
11006;SDS011;8186;57.652;11.968;2023-01-29T04:39:39;19.73;;;3.50;;
11006;SDS011;8186;57.652;11.968;2023-01-29T04:42:11;24.27;;;3.53;;
11006;SDS011;8186;57.652;11.968;2023-01-29T04:44:41;18.30;;;3.60;;
11006;SDS011;8186;57.652;11.968;2023-01-29T04:47:13;23.43;;;4.43;;
11006;SDS011;8186;57.652;11.968;2023-01-29T04:49:46;21.27;;;3.83;;
11006;SDS011;8186;57.652;11.968;2023-01-29T04:52:21;21.73;;;3.47;;
11006;SDS011;8186;57.652;11.968;2023-01-29T04:54:53;21.03;;;3.70;;
11006;SDS011;8186;57.652;11.968;2023-01-29T04:57:27;27.57;;;4.10;;
11006;SDS011;8186;57.652;11.968;2023-01-29T04:59:59;18.10;;;3.50;;
11006;SDS011;8186;57.652;11.968;2023-01-29T05:02:29;21.03;;;4.17;;
11006;SDS011;8186;57.652;11.968;2023-01-29T05:04:58;23.73;;;3.50;;
11006;SDS011;8186;57.652;11.968;2023-01-29T05:07:26;26.20;;;3.77;;
11006;SDS011;8186;57.652;11.968;2023-01-29T05:09:54;20.37;;;4.33;;
11006;SDS011;8186;57.652;11.968;2023-01-29T05:12:21;21.20;;;3.53;;
11006;SDS011;8186;57.652;11.968;2023-01-29T05:14:51;22.83;;;4.23;;
11006;SDS011;8186;57.652;11.968;2023-01-29T05:17:19;22.23;;;3.80;;
11006;SDS011;8186;57.652;11.968;2023-01-29T05:19:46;23.07;;;4.50;;
11006;SDS011;8186;57.652;11.968;2023-01-29T05:22:15;17.23;;;3.67;;
11006;SDS011;8186;57.652;11.968;2023-01-29T05:24:46;26.97;;;4.23;;
11006;SDS011;8186;57.652;11.968;2023-01-29T05:27:14;19.37;;;3.57;;
11006;SDS011;8186;57.652;11.968;2023-01-29T05:30:00;26.67;;;4.57;;
11006;SDS011;8186;57.652;11.968;2023-01-29T05:32:27;17.43;;;3.70;;
11006;SDS011;8186;57.652;11.968;2023-01-29T05:34:54;25.27;;;4.20;;
11006;SDS011;8186;57.652;11.968;2023-01-29T05:37:22;21.27;;;3.80;;
11006;SDS011;8186;57.652;11.968;2023-01-29T05:39:49;25.67;;;4.47;;
11006;SDS011;8186;57.652;11.968;2023-01-29T05:42:16;22.90;;;4.33;;
11006;SDS011;8186;57.652;11.968;2023-01-29T05:44:43;23.50;;;4.13;;
11006;SDS011;8186;57.652;11.968;2023-01-29T05:47:10;25.20;;;4.47;;
11006;SDS011;8186;57.652;11.968;2023-01-29T05:49:37;28.77;;;3.97;;
11006;SDS011;8186;57.652;11.968;2023-01-29T05:52:04;23.87;;;3.87;;
11006;SDS011;8186;57.652;11.968;2023-01-29T05:54:32;27.43;;;4.93;;
11006;SDS011;8186;57.652;11.968;2023-01-29T05:56:59;25.47;;;5.10;;
11006;SDS011;8186;57.652;11.968;2023-01-29T05:59:26;21.50;;;4.00;;
11006;SDS011;8186;57.652;11.968;2023-01-29T06:01:55;22.60;;;4.07;;
11006;SDS011;8186;57.652;11.968;2023-01-29T06:04:22;21.43;;;3.93;;
11006;SDS011;8186;57.652;11.968;2023-01-29T06:06:49;22.97;;;4.67;;
11006;SDS011;8186;57.652;11.968;2023-01-29T06:09:16;18.80;;;4.73;;
11006;SDS011;8186;57.652;11.968;2023-01-29T06:11:44;23.23;;;3.77;;
11006;SDS011;8186;57.652;11.968;2023-01-29T06:14:11;22.20;;;4.37;;
11006;SDS011;8186;57.652;11.968;2023-01-29T06:16:38;27.23;;;3.57;;
11006;SDS011;8186;57.652;11.968;2023-01-29T06:19:05;21.53;;;4.10;;
11006;SDS011;8186;57.652;11.968;2023-01-29T06:21:32;23.63;;;3.70;;
11006;SDS011;8186;57.652;11.968;2023-01-29T06:23:59;25.30;;;3.83;;
11006;SDS011;8186;57.652;11.968;2023-01-29T06:26:25;23.70;;;4.20;;
11006;SDS011;8186;57.652;11.968;2023-01-29T06:28:54;20.27;;;3.27;;
11006;SDS011;8186;57.652;11.968;2023-01-29T06:31:21;20.00;;;4.37;;
11006;SDS011;8186;57.652;11.968;2023-01-29T06:33:48;18.23;;;3.60;;
11006;SDS011;8186;57.652;11.968;2023-01-29T06:36:15;19.30;;;3.20;;
11006;SDS011;8186;57.652;11.968;2023-01-29T06:38:41;17.67;;;3.40;;
11006;SDS011;8186;57.652;11.968;2023-01-29T06:41:09;19.63;;;2.60;;
11006;SDS011;8186;57.652;11.968;2023-01-29T06:43:37;21.13;;;4.07;;
11006;SDS011;8186;57.652;11.968;2023-01-29T06:46:06;18.47;;;3.73;;
11006;SDS011;8186;57.652;11.968;2023-01-29T06:48:34;18.50;;;3.70;;
11006;SDS011;8186;57.652;11.968;2023-01-29T06:51:01;16.87;;;3.73;;
11006;SDS011;8186;57.652;11.968;2023-01-29T06:53:29;24.03;;;3.37;;
11006;SDS011;8186;57.652;11.968;2023-01-29T06:55:56;20.73;;;3.43;;
11006;SDS011;8186;57.652;11.968;2023-01-29T06:58:23;15.30;;;2.80;;
11006;SDS011;8186;57.652;11.968;2023-01-29T07:00:50;19.53;;;3.33;;
11006;SDS011;8186;57.652;11.968;2023-01-29T07:03:19;20.20;;;3.60;;
11006;SDS011;8186;57.652;11.968;2023-01-29T07:05:49;20.63;;;3.60;;
11006;SDS011;8186;57.652;11.968;2023-01-29T07:08:17;23.87;;;3.37;;
11006;SDS011;8186;57.652;11.968;2023-01-29T07:10:46;15.17;;;3.13;;
11006;SDS011;8186;57.652;11.968;2023-01-29T07:13:13;17.60;;;4.27;;
11006;SDS011;8186;57.652;11.968;2023-01-29T07:15:41;22.43;;;3.43;;
11006;SDS011;8186;57.652;11.968;2023-01-29T07:18:08;19.60;;;3.57;;
11006;SDS011;8186;57.652;11.968;2023-01-29T07:20:41;20.40;;;3.13;;
11006;SDS011;8186;57.652;11.968;2023-01-29T07:23:09;14.87;;;2.80;;
11006;SDS011;8186;57.652;11.968;2023-01-29T07:25:37;17.20;;;3.47;;
11006;SDS011;8186;57.652;11.968;2023-01-29T07:28:04;21.80;;;3.67;;
11006;SDS011;8186;57.652;11.968;2023-01-29T07:30:31;16.90;;;2.93;;
11006;SDS011;8186;57.652;11.968;2023-01-29T07:33:01;16.07;;;3.10;;
11006;SDS011;8186;57.652;11.968;2023-01-29T07:35:29;21.60;;;3.73;;
11006;SDS011;8186;57.652;11.968;2023-01-29T07:37:57;16.63;;;3.80;;
11006;SDS011;8186;57.652;11.968;2023-01-29T07:40:24;16.10;;;3.27;;
11006;SDS011;8186;57.652;11.968;2023-01-29T07:42:56;20.40;;;3.07;;
11006;SDS011;8186;57.652;11.968;2023-01-29T07:45:23;8.37;;;2.40;;
11006;SDS011;8186;57.652;11.968;2023-01-29T07:47:51;19.70;;;2.90;;
11006;SDS011;8186;57.652;11.968;2023-01-29T07:50:18;10.97;;;2.63;;
11006;SDS011;8186;57.652;11.968;2023-01-29T07:52:45;13.97;;;2.53;;
11006;SDS011;8186;57.652;11.968;2023-01-29T07:55:13;12.37;;;2.30;;
11006;SDS011;8186;57.652;11.968;2023-01-29T07:57:40;19.90;;;3.80;;
11006;SDS011;8186;57.652;11.968;2023-01-29T08:00:08;16.60;;;2.80;;
11006;SDS011;8186;57.652;11.968;2023-01-29T08:02:35;15.80;;;3.30;;
11006;SDS011;8186;57.652;11.968;2023-01-29T08:05:03;13.97;;;2.83;;
11006;SDS011;8186;57.652;11.968;2023-01-29T08:07:30;18.43;;;3.30;;
11006;SDS011;8186;57.652;11.968;2023-01-29T08:09:57;18.60;;;2.80;;
11006;SDS011;8186;57.652;11.968;2023-01-29T08:12:25;11.50;;;3.20;;
11006;SDS011;8186;57.652;11.968;2023-01-29T08:14:52;21.20;;;3.20;;
11006;SDS011;8186;57.652;11.968;2023-01-29T08:17:19;12.57;;;2.73;;
11006;SDS011;8186;57.652;11.968;2023-01-29T08:19:46;15.13;;;2.60;;
11006;SDS011;8186;57.652;11.968;2023-01-29T08:22:13;23.77;;;3.20;;
11006;SDS011;8186;57.652;11.968;2023-01-29T08:24:40;11.80;;;2.80;;
11006;SDS011;8186;57.652;11.968;2023-01-29T08:27:07;15.37;;;2.60;;
11006;SDS011;8186;57.652;11.968;2023-01-29T08:29:35;19.67;;;2.70;;
11006;SDS011;8186;57.652;11.968;2023-01-29T08:32:02;12.87;;;2.73;;
11006;SDS011;8186;57.652;11.968;2023-01-29T08:34:29;18.37;;;2.80;;
11006;SDS011;8186;57.652;11.968;2023-01-29T08:36:56;18.10;;;3.80;;
11006;SDS011;8186;57.652;11.968;2023-01-29T08:39:23;12.90;;;3.13;;
11006;SDS011;8186;57.652;11.968;2023-01-29T08:41:50;16.53;;;3.27;;
11006;SDS011;8186;57.652;11.968;2023-01-29T08:44:17;11.70;;;2.53;;
11006;SDS011;8186;57.652;11.968;2023-01-29T08:46:46;11.37;;;2.63;;
11006;SDS011;8186;57.652;11.968;2023-01-29T08:49:12;15.97;;;3.13;;
11006;SDS011;8186;57.652;11.968;2023-01-29T08:51:39;14.00;;;2.63;;
11006;SDS011;8186;57.652;11.968;2023-01-29T08:54:06;10.63;;;2.13;;
11006;SDS011;8186;57.652;11.968;2023-01-29T08:56:33;14.97;;;2.30;;
11006;SDS011;8186;57.652;11.968;2023-01-29T08:59:00;12.90;;;2.10;;
11006;SDS011;8186;57.652;11.968;2023-01-29T09:01:27;10.23;;;2.47;;
11006;SDS011;8186;57.652;11.968;2023-01-29T09:03:55;11.53;;;2.93;;
11006;SDS011;8186;57.652;11.968;2023-01-29T09:06:22;14.17;;;2.60;;
11006;SDS011;8186;57.652;11.968;2023-01-29T09:08:49;12.33;;;2.20;;
11006;SDS011;8186;57.652;11.968;2023-01-29T09:11:16;11.23;;;2.57;;
11006;SDS011;8186;57.652;11.968;2023-01-29T09:13:43;13.47;;;2.50;;
11006;SDS011;8186;57.652;11.968;2023-01-29T09:16:10;11.27;;;2.27;;
11006;SDS011;8186;57.652;11.968;2023-01-29T09:18:37;15.17;;;3.00;;
11006;SDS011;8186;57.652;11.968;2023-01-29T09:21:05;18.50;;;2.83;;
11006;SDS011;8186;57.652;11.968;2023-01-29T09:23:32;19.57;;;3.73;;
11006;SDS011;8186;57.652;11.968;2023-01-29T09:26:00;14.30;;;2.67;;
11006;SDS011;8186;57.652;11.968;2023-01-29T09:28:27;12.47;;;2.20;;
11006;SDS011;8186;57.652;11.968;2023-01-29T09:30:54;12.80;;;2.67;;
11006;SDS011;8186;57.652;11.968;2023-01-29T09:33:20;17.17;;;2.50;;
11006;SDS011;8186;57.652;11.968;2023-01-29T09:35:48;11.17;;;2.27;;
11006;SDS011;8186;57.652;11.968;2023-01-29T09:38:17;13.67;;;2.40;;
11006;SDS011;8186;57.652;11.968;2023-01-29T09:40:46;13.30;;;2.60;;
11006;SDS011;8186;57.652;11.968;2023-01-29T09:43:18;12.67;;;2.10;;
11006;SDS011;8186;57.652;11.968;2023-01-29T09:45:49;12.27;;;2.07;;
11006;SDS011;8186;57.652;11.968;2023-01-29T09:48:19;10.63;;;2.50;;
11006;SDS011;8186;57.652;11.968;2023-01-29T09:50:48;11.77;;;2.20;;
11006;SDS011;8186;57.652;11.968;2023-01-29T09:53:19;13.17;;;2.67;;
11006;SDS011;8186;57.652;11.968;2023-01-29T09:55:48;20.63;;;3.77;;
11006;SDS011;8186;57.652;11.968;2023-01-29T09:58:17;13.20;;;2.70;;
11006;SDS011;8186;57.652;11.968;2023-01-29T10:00:50;14.47;;;2.27;;
11006;SDS011;8186;57.652;11.968;2023-01-29T10:03:24;12.50;;;3.13;;
11006;SDS011;8186;57.652;11.968;2023-01-29T10:06:04;15.13;;;3.37;;
11006;SDS011;8186;57.652;11.968;2023-01-29T10:08:46;9.37;;;2.63;;
11006;SDS011;8186;57.652;11.968;2023-01-29T10:11:25;17.33;;;3.20;;
11006;SDS011;8186;57.652;11.968;2023-01-29T10:13:59;13.57;;;2.27;;
11006;SDS011;8186;57.652;11.968;2023-01-29T10:16:37;16.87;;;3.30;;
11006;SDS011;8186;57.652;11.968;2023-01-29T10:19:24;9.07;;;2.00;;
11006;SDS011;8186;57.652;11.968;2023-01-29T10:22:16;11.33;;;2.37;;
11006;SDS011;8186;57.652;11.968;2023-01-29T10:24:54;14.40;;;2.13;;
11006;SDS011;8186;57.652;11.968;2023-01-29T10:27:24;14.93;;;2.30;;
11006;SDS011;8186;57.652;11.968;2023-01-29T10:29:55;13.10;;;2.27;;
11006;SDS011;8186;57.652;11.968;2023-01-29T10:32:23;8.03;;;2.03;;
11006;SDS011;8186;57.652;11.968;2023-01-29T10:34:51;12.13;;;2.50;;
11006;SDS011;8186;57.652;11.968;2023-01-29T10:37:21;12.07;;;2.53;;
11006;SDS011;8186;57.652;11.968;2023-01-29T10:39:49;9.97;;;2.10;;
11006;SDS011;8186;57.652;11.968;2023-01-29T10:42:19;12.53;;;2.67;;
11006;SDS011;8186;57.652;11.968;2023-01-29T10:44:55;13.97;;;2.80;;
11006;SDS011;8186;57.652;11.968;2023-01-29T10:47:58;10.93;;;2.63;;
11006;SDS011;8186;57.652;11.968;2023-01-29T10:50:38;14.13;;;2.90;;
11006;SDS011;8186;57.652;11.968;2023-01-29T10:53:21;14.87;;;3.53;;
11006;SDS011;8186;57.652;11.968;2023-01-29T10:55:55;17.63;;;2.57;;
11006;SDS011;8186;57.652;11.968;2023-01-29T10:58:30;14.77;;;2.63;;
11006;SDS011;8186;57.652;11.968;2023-01-29T11:00:59;12.23;;;2.70;;
11006;SDS011;8186;57.652;11.968;2023-01-29T11:03:27;9.23;;;2.37;;
11006;SDS011;8186;57.652;11.968;2023-01-29T11:05:57;8.97;;;2.10;;
11006;SDS011;8186;57.652;11.968;2023-01-29T11:08:31;14.20;;;3.30;;
11006;SDS011;8186;57.652;11.968;2023-01-29T11:11:05;13.47;;;2.77;;
11006;SDS011;8186;57.652;11.968;2023-01-29T11:13:37;9.40;;;2.20;;
11006;SDS011;8186;57.652;11.968;2023-01-29T11:16:07;14.60;;;2.90;;
11006;SDS011;8186;57.652;11.968;2023-01-29T11:18:50;12.73;;;2.63;;
11006;SDS011;8186;57.652;11.968;2023-01-29T11:21:19;11.83;;;2.40;;
11006;SDS011;8186;57.652;11.968;2023-01-29T11:23:46;11.57;;;2.50;;
11006;SDS011;8186;57.652;11.968;2023-01-29T11:26:16;11.77;;;2.10;;
11006;SDS011;8186;57.652;11.968;2023-01-29T11:28:46;6.27;;;1.90;;
11006;SDS011;8186;57.652;11.968;2023-01-29T11:31:17;14.57;;;2.87;;
11006;SDS011;8186;57.652;11.968;2023-01-29T11:33:47;14.97;;;3.20;;
11006;SDS011;8186;57.652;11.968;2023-01-29T11:36:20;11.93;;;2.53;;
11006;SDS011;8186;57.652;11.968;2023-01-29T11:39:03;7.30;;;1.87;;
11006;SDS011;8186;57.652;11.968;2023-01-29T11:41:43;16.67;;;3.03;;
11006;SDS011;8186;57.652;11.968;2023-01-29T11:44:18;20.77;;;3.33;;
11006;SDS011;8186;57.652;11.968;2023-01-29T11:46:46;11.07;;;2.70;;
11006;SDS011;8186;57.652;11.968;2023-01-29T11:49:21;10.77;;;2.60;;
11006;SDS011;8186;57.652;11.968;2023-01-29T11:51:55;12.83;;;2.73;;
11006;SDS011;8186;57.652;11.968;2023-01-29T11:54:23;14.27;;;2.57;;
11006;SDS011;8186;57.652;11.968;2023-01-29T11:56:54;15.30;;;3.13;;
11006;SDS011;8186;57.652;11.968;2023-01-29T11:59:28;12.30;;;2.77;;
11006;SDS011;8186;57.652;11.968;2023-01-29T12:02:03;13.17;;;2.23;;
11006;SDS011;8186;57.652;11.968;2023-01-29T12:04:32;10.77;;;2.13;;
11006;SDS011;8186;57.652;11.968;2023-01-29T12:07:02;15.47;;;2.70;;
11006;SDS011;8186;57.652;11.968;2023-01-29T12:09:28;9.60;;;2.73;;
11006;SDS011;8186;57.652;11.968;2023-01-29T12:11:57;12.43;;;2.23;;
11006;SDS011;8186;57.652;11.968;2023-01-29T12:14:45;7.57;;;1.90;;
11006;SDS011;8186;57.652;11.968;2023-01-29T12:17:12;13.53;;;2.30;;
11006;SDS011;8186;57.652;11.968;2023-01-29T12:19:42;13.37;;;2.63;;
11006;SDS011;8186;57.652;11.968;2023-01-29T12:22:14;12.50;;;2.40;;
11006;SDS011;8186;57.652;11.968;2023-01-29T12:24:47;10.50;;;2.40;;
11006;SDS011;8186;57.652;11.968;2023-01-29T12:27:16;15.23;;;2.47;;
11006;SDS011;8186;57.652;11.968;2023-01-29T12:29:48;10.83;;;1.90;;
11006;SDS011;8186;57.652;11.968;2023-01-29T12:32:21;8.27;;;2.20;;
11006;SDS011;8186;57.652;11.968;2023-01-29T12:34:54;13.80;;;3.20;;
11006;SDS011;8186;57.652;11.968;2023-01-29T12:37:25;10.17;;;2.30;;
11006;SDS011;8186;57.652;11.968;2023-01-29T12:39:53;14.50;;;2.30;;
11006;SDS011;8186;57.652;11.968;2023-01-29T12:42:21;13.47;;;2.60;;
11006;SDS011;8186;57.652;11.968;2023-01-29T12:44:51;12.13;;;1.80;;
11006;SDS011;8186;57.652;11.968;2023-01-29T12:47:20;7.47;;;1.83;;
11006;SDS011;8186;57.652;11.968;2023-01-29T12:49:50;7.53;;;1.83;;
11006;SDS011;8186;57.652;11.968;2023-01-29T12:52:20;13.63;;;1.90;;
11006;SDS011;8186;57.652;11.968;2023-01-29T12:54:59;12.47;;;1.83;;
11006;SDS011;8186;57.652;11.968;2023-01-29T12:57:31;6.50;;;2.43;;
11006;SDS011;8186;57.652;11.968;2023-01-29T13:00:05;13.63;;;2.93;;
11006;SDS011;8186;57.652;11.968;2023-01-29T13:02:36;12.33;;;2.67;;
11006;SDS011;8186;57.652;11.968;2023-01-29T13:05:08;13.37;;;2.30;;
11006;SDS011;8186;57.652;11.968;2023-01-29T13:07:45;8.80;;;2.00;;
11006;SDS011;8186;57.652;11.968;2023-01-29T13:10:15;12.17;;;2.73;;
11006;SDS011;8186;57.652;11.968;2023-01-29T13:12:47;7.33;;;1.67;;
11006;SDS011;8186;57.652;11.968;2023-01-29T13:15:21;7.83;;;2.10;;
11006;SDS011;8186;57.652;11.968;2023-01-29T13:17:50;12.37;;;2.40;;
11006;SDS011;8186;57.652;11.968;2023-01-29T13:20:20;11.17;;;2.40;;
11006;SDS011;8186;57.652;11.968;2023-01-29T13:22:50;9.10;;;2.10;;
11006;SDS011;8186;57.652;11.968;2023-01-29T13:25:18;12.10;;;2.63;;
11006;SDS011;8186;57.652;11.968;2023-01-29T13:27:46;11.13;;;2.13;;
11006;SDS011;8186;57.652;11.968;2023-01-29T13:30:24;6.87;;;2.07;;
11006;SDS011;8186;57.652;11.968;2023-01-29T13:32:52;7.27;;;1.73;;
11006;SDS011;8186;57.652;11.968;2023-01-29T13:35:32;12.33;;;2.13;;
11006;SDS011;8186;57.652;11.968;2023-01-29T13:38:00;9.60;;;1.90;;
11006;SDS011;8186;57.652;11.968;2023-01-29T13:40:28;8.30;;;1.83;;
11006;SDS011;8186;57.652;11.968;2023-01-29T13:42:56;9.03;;;1.70;;
11006;SDS011;8186;57.652;11.968;2023-01-29T13:45:26;10.67;;;1.87;;
11006;SDS011;8186;57.652;11.968;2023-01-29T13:48:07;7.90;;;1.97;;
11006;SDS011;8186;57.652;11.968;2023-01-29T13:50:36;7.90;;;1.87;;
11006;SDS011;8186;57.652;11.968;2023-01-29T13:53:04;8.53;;;2.20;;
11006;SDS011;8186;57.652;11.968;2023-01-29T13:55:33;9.17;;;2.17;;
11006;SDS011;8186;57.652;11.968;2023-01-29T13:58:01;13.67;;;2.33;;
11006;SDS011;8186;57.652;11.968;2023-01-29T14:09:33;10.17;;;1.90;;
11006;SDS011;8186;57.652;11.968;2023-01-29T14:12:41;11.33;;;2.50;;
11006;SDS011;8186;57.652;11.968;2023-01-29T14:15:19;5.90;;;1.60;;
11006;SDS011;8186;57.652;11.968;2023-01-29T14:18:11;11.60;;;2.47;;
11006;SDS011;8186;57.652;11.968;2023-01-29T14:23:33;12.27;;;2.40;;
11006;SDS011;8186;57.652;11.968;2023-01-29T14:26:18;6.30;;;2.10;;
11006;SDS011;8186;57.652;11.968;2023-01-29T14:28:52;6.80;;;2.07;;
11006;SDS011;8186;57.652;11.968;2023-01-29T14:31:38;6.97;;;1.53;;
11006;SDS011;8186;57.652;11.968;2023-01-29T14:34:14;8.37;;;2.00;;
11006;SDS011;8186;57.652;11.968;2023-01-29T14:36:44;9.27;;;2.33;;
11006;SDS011;8186;57.652;11.968;2023-01-29T14:42:04;9.83;;;1.90;;
11006;SDS011;8186;57.652;11.968;2023-01-29T14:47:51;10.70;;;2.60;;
11006;SDS011;8186;57.652;11.968;2023-01-29T14:53:23;12.40;;;2.63;;
11006;SDS011;8186;57.652;11.968;2023-01-29T14:55:57;8.60;;;1.97;;
11006;SDS011;8186;57.652;11.968;2023-01-29T14:58:27;9.43;;;2.33;;
11006;SDS011;8186;57.652;11.968;2023-01-29T15:01:00;11.40;;;2.20;;
11006;SDS011;8186;57.652;11.968;2023-01-29T15:03:33;12.40;;;2.20;;
11006;SDS011;8186;57.652;11.968;2023-01-29T15:06:05;9.87;;;2.43;;
11006;SDS011;8186;57.652;11.968;2023-01-29T15:08:34;13.03;;;3.37;;
11006;SDS011;8186;57.652;11.968;2023-01-29T15:11:05;6.63;;;2.23;;
11006;SDS011;8186;57.652;11.968;2023-01-29T15:13:52;9.93;;;2.63;;
11006;SDS011;8186;57.652;11.968;2023-01-29T15:16:23;10.77;;;2.87;;
11006;SDS011;8186;57.652;11.968;2023-01-29T15:18:51;10.43;;;2.60;;